sensor_id;sensor_type;location;lat;lon;timestamp;pressure;altitude;pressure_sealevel;temperature
13304;BMP280;6720;51.958;4.540;2023-12-22T00:00:08;100195.41;;;12.69
13304;BMP280;6720;51.958;4.540;2023-12-22T00:02:34;100204.63;;;12.80
13304;BMP280;6720;51.958;4.540;2023-12-22T00:04:59;100221.75;;;12.90
13304;BMP280;6720;51.958;4.540;2023-12-22T00:07:24;100228.28;;;12.80
13304;BMP280;6720;51.958;4.540;2023-12-22T00:09:50;100229.16;;;12.79
13304;BMP280;6720;51.958;4.540;2023-12-22T00:12:15;100232.03;;;12.73
13304;BMP280;6720;51.958;4.540;2023-12-22T00:14:41;100227.34;;;12.81
13304;BMP280;6720;51.958;4.540;2023-12-22T00:17:07;100241.06;;;12.89
13304;BMP280;6720;51.958;4.540;2023-12-22T00:19:32;100223.38;;;12.70
13304;BMP280;6720;51.958;4.540;2023-12-22T00:21:58;100235.63;;;12.71
13304;BMP280;6720;51.958;4.540;2023-12-22T00:24:24;100233.19;;;12.65
13304;BMP280;6720;51.958;4.540;2023-12-22T00:26:49;100210.00;;;12.77
13304;BMP280;6720;51.958;4.540;2023-12-22T00:29:14;100223.16;;;12.76
13304;BMP280;6720;51.958;4.540;2023-12-22T00:31:40;100226.38;;;12.84
13304;BMP280;6720;51.958;4.540;2023-12-22T00:34:05;100229.81;;;12.86
13304;BMP280;6720;51.958;4.540;2023-12-22T00:36:31;100230.22;;;12.74
13304;BMP280;6720;51.958;4.540;2023-12-22T00:38:56;100214.91;;;12.86
13304;BMP280;6720;51.958;4.540;2023-12-22T00:41:21;100225.38;;;12.63
13304;BMP280;6720;51.958;4.540;2023-12-22T00:43:47;100243.22;;;12.78
13304;BMP280;6720;51.958;4.540;2023-12-22T00:46:13;100241.69;;;12.47
13304;BMP280;6720;51.958;4.540;2023-12-22T00:48:39;100242.19;;;12.82
13304;BMP280;6720;51.958;4.540;2023-12-22T00:51:06;100252.38;;;12.91
13304;BMP280;6720;51.958;4.540;2023-12-22T00:53:32;100240.69;;;12.75
13304;BMP280;6720;51.958;4.540;2023-12-22T00:55:59;100251.00;;;12.81
13304;BMP280;6720;51.958;4.540;2023-12-22T00:58:25;100260.91;;;12.73
13304;BMP280;6720;51.958;4.540;2023-12-22T01:00:50;100268.41;;;12.59
13304;BMP280;6720;51.958;4.540;2023-12-22T01:03:15;100260.63;;;12.81
13304;BMP280;6720;51.958;4.540;2023-12-22T01:05:41;100260.81;;;12.76
13304;BMP280;6720;51.958;4.540;2023-12-22T01:08:06;100269.75;;;12.95
13304;BMP280;6720;51.958;4.540;2023-12-22T01:10:32;100266.25;;;12.70
13304;BMP280;6720;51.958;4.540;2023-12-22T01:12:57;100260.13;;;12.70
13304;BMP280;6720;51.958;4.540;2023-12-22T01:15:23;100269.69;;;12.72
13304;BMP280;6720;51.958;4.540;2023-12-22T01:17:48;100283.81;;;12.68
13304;BMP280;6720;51.958;4.540;2023-12-22T01:20:14;100270.78;;;12.67
13304;BMP280;6720;51.958;4.540;2023-12-22T01:22:39;100284.00;;;12.88
13304;BMP280;6720;51.958;4.540;2023-12-22T01:25:05;100278.69;;;12.65
13304;BMP280;6720;51.958;4.540;2023-12-22T01:27:31;100284.59;;;12.96
13304;BMP280;6720;51.958;4.540;2023-12-22T01:29:56;100277.75;;;12.92
13304;BMP280;6720;51.958;4.540;2023-12-22T01:32:22;100277.13;;;13.10
13304;BMP280;6720;51.958;4.540;2023-12-22T01:34:47;100272.38;;;12.95
13304;BMP280;6720;51.958;4.540;2023-12-22T01:37:13;100290.03;;;12.66
13304;BMP280;6720;51.958;4.540;2023-12-22T01:39:38;100299.38;;;12.74
13304;BMP280;6720;51.958;4.540;2023-12-22T01:42:04;100318.91;;;12.92
13304;BMP280;6720;51.958;4.540;2023-12-22T01:44:29;100312.13;;;12.85
13304;BMP280;6720;51.958;4.540;2023-12-22T01:46:55;100294.09;;;12.76
13304;BMP280;6720;51.958;4.540;2023-12-22T01:49:21;100287.88;;;12.52
13304;BMP280;6720;51.958;4.540;2023-12-22T01:51:47;100270.44;;;12.51
13304;BMP280;6720;51.958;4.540;2023-12-22T01:54:14;100280.66;;;12.83
13304;BMP280;6720;51.958;4.540;2023-12-22T01:56:41;100277.75;;;12.92
13304;BMP280;6720;51.958;4.540;2023-12-22T01:59:07;100280.00;;;13.03
13304;BMP280;6720;51.958;4.540;2023-12-22T02:01:33;100269.38;;;12.81
13304;BMP280;6720;51.958;4.540;2023-12-22T02:03:59;100275.31;;;12.86
13304;BMP280;6720;51.958;4.540;2023-12-22T02:06:48;100280.31;;;12.69
13304;BMP280;6720;51.958;4.540;2023-12-22T02:09:41;100289.06;;;12.68
13304;BMP280;6720;51.958;4.540;2023-12-22T02:12:17;100282.03;;;12.70
13304;BMP280;6720;51.958;4.540;2023-12-22T02:15:04;100292.25;;;12.78
13304;BMP280;6720;51.958;4.540;2023-12-22T02:18:12;100284.00;;;12.88
13304;BMP280;6720;51.958;4.540;2023-12-22T02:20:49;100297.19;;;12.87
13304;BMP280;6720;51.958;4.540;2023-12-22T02:23:36;100280.75;;;12.82
13304;BMP280;6720;51.958;4.540;2023-12-22T02:26:46;100292.53;;;12.70
13304;BMP280;6720;51.958;4.540;2023-12-22T02:29:24;100282.63;;;13.03
13304;BMP280;6720;51.958;4.540;2023-12-22T02:32:21;100293.28;;;12.98
13304;BMP280;6720;51.958;4.540;2023-12-22T02:35:26;100294.22;;;12.71
13304;BMP280;6720;51.958;4.540;2023-12-22T02:41:23;100281.38;;;12.88
13304;BMP280;6720;51.958;4.540;2023-12-22T02:43:49;100286.56;;;13.16
13304;BMP280;6720;51.958;4.540;2023-12-22T02:46:15;100274.09;;;12.96
13304;BMP280;6720;51.958;4.540;2023-12-22T02:48:40;100264.13;;;12.81
13304;BMP280;6720;51.958;4.540;2023-12-22T02:51:06;100280.44;;;13.15
13304;BMP280;6720;51.958;4.540;2023-12-22T02:53:31;100271.41;;;12.73
13304;BMP280;6720;51.958;4.540;2023-12-22T02:55:57;100280.88;;;13.03
13304;BMP280;6720;51.958;4.540;2023-12-22T02:58:22;100281.16;;;12.94
13304;BMP280;6720;51.958;4.540;2023-12-22T03:00:48;100288.19;;;12.94
13304;BMP280;6720;51.958;4.540;2023-12-22T03:03:13;100286.22;;;13.00
13304;BMP280;6720;51.958;4.540;2023-12-22T03:05:39;100276.75;;;12.95
13304;BMP280;6720;51.958;4.540;2023-12-22T03:08:04;100272.06;;;12.80
13304;BMP280;6720;51.958;4.540;2023-12-22T03:10:30;100283.41;;;13.06
13304;BMP280;6720;51.958;4.540;2023-12-22T03:12:55;100266.81;;;13.04
13304;BMP280;6720;51.958;4.540;2023-12-22T03:15:43;100269.41;;;13.06
13304;BMP280;6720;51.958;4.540;2023-12-22T03:18:42;100272.91;;;12.80
13304;BMP280;6720;51.958;4.540;2023-12-22T03:21:43;100289.28;;;13.13
13304;BMP280;6720;51.958;4.540;2023-12-22T03:24:14;100280.31;;;13.18
13304;BMP280;6720;51.958;4.540;2023-12-22T03:26:40;100246.88;;;12.99
13304;BMP280;6720;51.958;4.540;2023-12-22T03:29:05;100278.34;;;13.00
13304;BMP280;6720;51.958;4.540;2023-12-22T03:31:30;100295.78;;;13.03
13304;BMP280;6720;51.958;4.540;2023-12-22T03:33:56;100282.59;;;13.04
13304;BMP280;6720;51.958;4.540;2023-12-22T03:36:21;100268.41;;;13.08
13304;BMP280;6720;51.958;4.540;2023-12-22T03:38:47;100271.72;;;13.13
13304;BMP280;6720;51.958;4.540;2023-12-22T03:41:12;100277.03;;;13.12
13304;BMP280;6720;51.958;4.540;2023-12-22T03:43:38;100275.91;;;13.19
13304;BMP280;6720;51.958;4.540;2023-12-22T03:46:03;100272.19;;;13.01
13304;BMP280;6720;51.958;4.540;2023-12-22T03:48:29;100277.22;;;13.07
13304;BMP280;6720;51.958;4.540;2023-12-22T03:50:54;100284.69;;;12.93
13304;BMP280;6720;51.958;4.540;2023-12-22T03:53:19;100282.59;;;13.04
13304;BMP280;6720;51.958;4.540;2023-12-22T03:55:45;100282.44;;;13.09
13304;BMP280;6720;51.958;4.540;2023-12-22T03:58:10;100281.94;;;13.22
13304;BMP280;6720;51.958;4.540;2023-12-22T04:00:36;100275.16;;;13.15
13304;BMP280;6720;51.958;4.540;2023-12-22T04:03:01;100288.72;;;13.28
13304;BMP280;6720;51.958;4.540;2023-12-22T04:05:27;100289.47;;;13.31
13304;BMP280;6720;51.958;4.540;2023-12-22T04:07:53;100291.31;;;13.29
13304;BMP280;6720;51.958;4.540;2023-12-22T04:10:18;100290.38;;;13.30
13304;BMP280;6720;51.958;4.540;2023-12-22T04:12:44;100288.75;;;13.03
13304;BMP280;6720;51.958;4.540;2023-12-22T04:15:09;100288.53;;;13.32
13304;BMP280;6720;51.958;4.540;2023-12-22T04:17:35;100285.41;;;12.98
13304;BMP280;6720;51.958;4.540;2023-12-22T04:20:01;100291.63;;;13.43
13304;BMP280;6720;51.958;4.540;2023-12-22T04:22:26;100292.78;;;13.36
13304;BMP280;6720;51.958;4.540;2023-12-22T04:24:52;100291.63;;;13.43
13304;BMP280;6720;51.958;4.540;2023-12-22T04:27:17;100302.81;;;13.50
13304;BMP280;6720;51.958;4.540;2023-12-22T04:29:43;100288.50;;;13.34
13304;BMP280;6720;51.958;4.540;2023-12-22T04:32:09;100292.16;;;13.53
13304;BMP280;6720;51.958;4.540;2023-12-22T04:34:34;100299.19;;;13.52
13304;BMP280;6720;51.958;4.540;2023-12-22T04:36:59;100286.28;;;13.46
13304;BMP280;6720;51.958;4.540;2023-12-22T04:39:25;100293.78;;;13.09
13304;BMP280;6720;51.958;4.540;2023-12-22T04:41:50;100289.44;;;13.08
13304;BMP280;6720;51.958;4.540;2023-12-22T04:44:16;100276.66;;;13.22
13304;BMP280;6720;51.958;4.540;2023-12-22T04:46:41;100288.16;;;13.20
13304;BMP280;6720;51.958;4.540;2023-12-22T04:49:06;100286.03;;;13.06
13304;BMP280;6720;51.958;4.540;2023-12-22T04:51:32;100281.16;;;12.94
13304;BMP280;6720;51.958;4.540;2023-12-22T04:53:57;100282.38;;;13.10
13304;BMP280;6720;51.958;4.540;2023-12-22T04:56:23;100290.38;;;13.30
13304;BMP280;6720;51.958;4.540;2023-12-22T04:58:49;100295.41;;;13.36
13304;BMP280;6720;51.958;4.540;2023-12-22T05:01:15;100294.16;;;13.23
13304;BMP280;6720;51.958;4.540;2023-12-22T05:03:40;100299.19;;;13.29
13304;BMP280;6720;51.958;4.540;2023-12-22T05:06:06;100306.38;;;13.24
13304;BMP280;6720;51.958;4.540;2023-12-22T05:08:31;100300.56;;;13.39
13304;BMP280;6720;51.958;4.540;2023-12-22T05:10:57;100291.47;;;13.25
13304;BMP280;6720;51.958;4.540;2023-12-22T05:13:22;100309.56;;;13.32
13304;BMP280;6720;51.958;4.540;2023-12-22T05:15:47;100296.56;;;13.52
13304;BMP280;6720;51.958;4.540;2023-12-22T05:18:13;100288.06;;;13.46
13304;BMP280;6720;51.958;4.540;2023-12-22T05:20:38;100282.72;;;13.24
13304;BMP280;6720;51.958;4.540;2023-12-22T05:23:03;100290.28;;;13.33
13304;BMP280;6720;51.958;4.540;2023-12-22T05:25:29;100301.31;;;13.20
13304;BMP280;6720;51.958;4.540;2023-12-22T05:27:54;100292.75;;;13.13
13304;BMP280;6720;51.958;4.540;2023-12-22T05:30:20;100283.75;;;13.20
13304;BMP280;6720;51.958;4.540;2023-12-22T05:32:45;100283.97;;;13.14
13304;BMP280;6720;51.958;4.540;2023-12-22T05:35:10;100283.41;;;13.29
13304;BMP280;6720;51.958;4.540;2023-12-22T05:37:36;100279.13;;;12.78
13304;BMP280;6720;51.958;4.540;2023-12-22T05:40:02;100280.78;;;13.06
13304;BMP280;6720;51.958;4.540;2023-12-22T05:42:27;100286.91;;;13.05
13304;BMP280;6720;51.958;4.540;2023-12-22T05:44:53;100287.81;;;13.29
13304;BMP280;6720;51.958;4.540;2023-12-22T05:47:18;100286.09;;;13.28
13304;BMP280;6720;51.958;4.540;2023-12-22T05:49:43;100270.59;;;13.20
13304;BMP280;6720;51.958;4.540;2023-12-22T05:52:09;100273.00;;;13.26
13304;BMP280;6720;51.958;4.540;2023-12-22T05:54:35;100270.25;;;13.06
13304;BMP280;6720;51.958;4.540;2023-12-22T05:57:01;100286.22;;;13.00
13304;BMP280;6720;51.958;4.540;2023-12-22T05:59:30;100278.53;;;12.94
13304;BMP280;6720;51.958;4.540;2023-12-22T06:01:57;100273.63;;;13.10
13304;BMP280;6720;51.958;4.540;2023-12-22T06:04:24;100272.91;;;13.29
13304;BMP280;6720;51.958;4.540;2023-12-22T06:06:49;100294.81;;;13.05
13304;BMP280;6720;51.958;4.540;2023-12-22T06:09:15;100294.50;;;13.14
13304;BMP280;6720;51.958;4.540;2023-12-22T06:11:42;100303.38;;;13.35
13304;BMP280;6720;51.958;4.540;2023-12-22T06:14:07;100300.66;;;13.36
13304;BMP280;6720;51.958;4.540;2023-12-22T06:16:33;100293.72;;;13.11
13304;BMP280;6720;51.958;4.540;2023-12-22T06:18:58;100302.50;;;13.34
13304;BMP280;6720;51.958;4.540;2023-12-22T06:21:24;100306.63;;;13.41
13304;BMP280;6720;51.958;4.540;2023-12-22T06:23:50;100306.63;;;13.41
13304;BMP280;6720;51.958;4.540;2023-12-22T06:26:15;100311.63;;;13.47
13304;BMP280;6720;51.958;4.540;2023-12-22T06:28:40;100311.41;;;13.30
13304;BMP280;6720;51.958;4.540;2023-12-22T06:31:07;100296.66;;;13.26
13304;BMP280;6720;51.958;4.540;2023-12-22T06:33:32;100299.09;;;13.55
13304;BMP280;6720;51.958;4.540;2023-12-22T06:35:58;100300.22;;;13.48
13304;BMP280;6720;51.958;4.540;2023-12-22T06:38:23;100297.59;;;13.25
13304;BMP280;6720;51.958;4.540;2023-12-22T06:40:49;100304.09;;;13.61
13304;BMP280;6720;51.958;4.540;2023-12-22T06:43:15;100296.16;;;13.40
13304;BMP280;6720;51.958;4.540;2023-12-22T06:45:41;100304.72;;;13.45
13304;BMP280;6720;51.958;4.540;2023-12-22T06:48:06;100296.09;;;13.41
13304;BMP280;6720;51.958;4.540;2023-12-22T06:50:32;100278.16;;;13.52
13304;BMP280;6720;51.958;4.540;2023-12-22T06:52:57;100286.31;;;13.68
13304;BMP280;6720;51.958;4.540;2023-12-22T06:55:23;100288.16;;;13.43
13304;BMP280;6720;51.958;4.540;2023-12-22T06:57:49;100275.97;;;13.17
13304;BMP280;6720;51.958;4.540;2023-12-22T07:00:15;100277.19;;;13.32
13304;BMP280;6720;51.958;4.540;2023-12-22T07:02:40;100277.75;;;13.40
13304;BMP280;6720;51.958;4.540;2023-12-22T07:07:35;100265.03;;;13.29
13304;BMP280;6720;51.958;4.540;2023-12-22T07:10:00;100268.81;;;13.67
13304;BMP280;6720;51.958;4.540;2023-12-22T07:12:26;100275.53;;;13.52
13304;BMP280;6720;51.958;4.540;2023-12-22T07:14:51;100266.00;;;13.50
13304;BMP280;6720;51.958;4.540;2023-12-22T07:17:16;100293.75;;;13.34
13304;BMP280;6720;51.958;4.540;2023-12-22T07:19:42;100270.50;;;13.46
13304;BMP280;6720;51.958;4.540;2023-12-22T07:22:07;100276.78;;;13.19
13304;BMP280;6720;51.958;4.540;2023-12-22T07:24:33;100277.09;;;13.35
13304;BMP280;6720;51.958;4.540;2023-12-22T07:26:59;100265.56;;;13.60
13304;BMP280;6720;51.958;4.540;2023-12-22T07:29:24;100257.81;;;13.34
13304;BMP280;6720;51.958;4.540;2023-12-22T07:31:50;100274.09;;;13.21
13304;BMP280;6720;51.958;4.540;2023-12-22T07:34:15;100262.25;;;13.32
13304;BMP280;6720;51.958;4.540;2023-12-22T07:36:42;100269.06;;;13.15
13304;BMP280;6720;51.958;4.540;2023-12-22T07:39:07;100273.69;;;13.08
13304;BMP280;6720;51.958;4.540;2023-12-22T07:41:34;100276.16;;;13.13
13304;BMP280;6720;51.958;4.540;2023-12-22T07:44:01;100276.47;;;13.27
13304;BMP280;6720;51.958;4.540;2023-12-22T07:46:27;100267.97;;;13.20
13304;BMP280;6720;51.958;4.540;2023-12-22T07:48:55;100265.22;;;13.46
13304;BMP280;6720;51.958;4.540;2023-12-22T07:51:20;100267.88;;;13.23
13304;BMP280;6720;51.958;4.540;2023-12-22T07:53:46;100272.59;;;13.14
13304;BMP280;6720;51.958;4.540;2023-12-22T07:56:11;100291.00;;;13.14
13304;BMP280;6720;51.958;4.540;2023-12-22T07:58:37;100268.22;;;13.14
13304;BMP280;6720;51.958;4.540;2023-12-22T08:01:03;100264.78;;;13.12
13304;BMP280;6720;51.958;4.540;2023-12-22T08:03:29;100267.03;;;12.98
13304;BMP280;6720;51.958;4.540;2023-12-22T08:05:54;100257.56;;;13.17
13304;BMP280;6720;51.958;4.540;2023-12-22T08:08:21;100262.25;;;13.32
13304;BMP280;6720;51.958;4.540;2023-12-22T08:10:46;100261.53;;;13.29
13304;BMP280;6720;51.958;4.540;2023-12-22T08:13:11;100257.97;;;13.30
13304;BMP280;6720;51.958;4.540;2023-12-22T08:15:37;100263.97;;;13.10
13304;BMP280;6720;51.958;4.540;2023-12-22T08:18:03;100246.72;;;13.26
13304;BMP280;6720;51.958;4.540;2023-12-22T08:20:29;100267.41;;;13.12
13304;BMP280;6720;51.958;4.540;2023-12-22T08:22:54;100261.16;;;13.38
13304;BMP280;6720;51.958;4.540;2023-12-22T08:25:20;100276.09;;;13.37
13304;BMP280;6720;51.958;4.540;2023-12-22T08:27:46;100270.34;;;13.28
13304;BMP280;6720;51.958;4.540;2023-12-22T08:30:12;100269.81;;;13.41
13304;BMP280;6720;51.958;4.540;2023-12-22T08:32:38;100270.84;;;13.37
13304;BMP280;6720;51.958;4.540;2023-12-22T08:35:04;100274.16;;;13.42
13304;BMP280;6720;51.958;4.540;2023-12-22T08:37:30;100259.75;;;13.29
13304;BMP280;6720;51.958;4.540;2023-12-22T08:39:56;100263.91;;;13.12
13304;BMP280;6720;51.958;4.540;2023-12-22T08:42:23;100240.19;;;13.36
13304;BMP280;6720;51.958;4.540;2023-12-22T08:44:48;100251.41;;;13.41
13304;BMP280;6720;51.958;4.540;2023-12-22T08:47:14;100250.84;;;13.56
13304;BMP280;6720;51.958;4.540;2023-12-22T08:49:39;100247.44;;;13.53
13304;BMP280;6720;51.958;4.540;2023-12-22T08:52:05;100247.66;;;13.48
13304;BMP280;6720;51.958;4.540;2023-12-22T08:54:31;100247.50;;;13.51
13304;BMP280;6720;51.958;4.540;2023-12-22T08:56:56;100240.66;;;13.47
13304;BMP280;6720;51.958;4.540;2023-12-22T08:59:22;100256.66;;;13.64
13304;BMP280;6720;51.958;4.540;2023-12-22T09:01:47;100248.09;;;13.59
13304;BMP280;6720;51.958;4.540;2023-12-22T09:04:13;100247.66;;;13.70
13304;BMP280;6720;51.958;4.540;2023-12-22T09:06:38;100245.19;;;13.65
13304;BMP280;6720;51.958;4.540;2023-12-22T09:09:04;100253.47;;;13.56
13304;BMP280;6720;51.958;4.540;2023-12-22T09:11:30;100253.41;;;13.58
13304;BMP280;6720;51.958;4.540;2023-12-22T09:13:56;100255.00;;;13.83
13304;BMP280;6720;51.958;4.540;2023-12-22T09:16:22;100258.78;;;13.76
13304;BMP280;6720;51.958;4.540;2023-12-22T09:18:48;100251.84;;;13.97
13304;BMP280;6720;51.958;4.540;2023-12-22T09:21:15;100242.41;;;13.91
13304;BMP280;6720;51.958;4.540;2023-12-22T09:23:40;100253.56;;;14.19
13304;BMP280;6720;51.958;4.540;2023-12-22T09:26:09;100248.88;;;13.83
13304;BMP280;6720;51.958;4.540;2023-12-22T09:28:35;100249.31;;;13.94
13304;BMP280;6720;51.958;4.540;2023-12-22T09:31:00;100268.50;;;13.97
13304;BMP280;6720;51.958;4.540;2023-12-22T09:33:26;100265.44;;;13.86
13304;BMP280;6720;51.958;4.540;2023-12-22T09:35:51;100268.09;;;14.06
13304;BMP280;6720;51.958;4.540;2023-12-22T09:38:17;100259.97;;;14.12
13304;BMP280;6720;51.958;4.540;2023-12-22T09:40:42;100279.13;;;13.94
13304;BMP280;6720;51.958;4.540;2023-12-22T09:43:08;100271.41;;;13.90
13304;BMP280;6720;51.958;4.540;2023-12-22T09:45:34;100278.91;;;13.77
13304;BMP280;6720;51.958;4.540;2023-12-22T09:48:01;100277.28;;;13.96
13304;BMP280;6720;51.958;4.540;2023-12-22T09:50:27;100280.72;;;14.20
13304;BMP280;6720;51.958;4.540;2023-12-22T09:52:52;100275.34;;;14.01
13304;BMP280;6720;51.958;4.540;2023-12-22T09:55:18;100274.38;;;14.25
13304;BMP280;6720;51.958;4.540;2023-12-22T09:57:49;100258.47;;;14.28
13304;BMP280;6720;51.958;4.540;2023-12-22T10:00:16;100262.09;;;14.46
13304;BMP280;6720;51.958;4.540;2023-12-22T10:02:45;100269.88;;;14.29
13304;BMP280;6720;51.958;4.540;2023-12-22T10:05:13;100273.97;;;14.13
13304;BMP280;6720;51.958;4.540;2023-12-22T10:07:41;100278.94;;;14.20
13304;BMP280;6720;51.958;4.540;2023-12-22T10:10:07;100281.19;;;14.51
13304;BMP280;6720;51.958;4.540;2023-12-22T10:12:34;100271.50;;;14.31
13304;BMP280;6720;51.958;4.540;2023-12-22T10:15:00;100286.25;;;14.35
13304;BMP280;6720;51.958;4.540;2023-12-22T10:17:26;100297.28;;;14.65
13304;BMP280;6720;51.958;4.540;2023-12-22T10:19:52;100277.38;;;14.58
13304;BMP280;6720;51.958;4.540;2023-12-22T10:22:17;100272.56;;;14.27
13304;BMP280;6720;51.958;4.540;2023-12-22T10:24:45;100289.38;;;14.45
13304;BMP280;6720;51.958;4.540;2023-12-22T10:27:16;100283.13;;;14.67
13304;BMP280;6720;51.958;4.540;2023-12-22T10:29:50;100292.41;;;14.56
13304;BMP280;6720;51.958;4.540;2023-12-22T10:32:18;100273.69;;;14.62
13304;BMP280;6720;51.958;4.540;2023-12-22T10:34:44;100281.06;;;14.54
13304;BMP280;6720;51.958;4.540;2023-12-22T10:37:10;100292.72;;;14.48
13304;BMP280;6720;51.958;4.540;2023-12-22T10:39:38;100294.19;;;14.55
13304;BMP280;6720;51.958;4.540;2023-12-22T10:42:04;100294.53;;;14.68
13304;BMP280;6720;51.958;4.540;2023-12-22T10:44:29;100289.84;;;14.54
13304;BMP280;6720;51.958;4.540;2023-12-22T10:46:55;100288.59;;;14.63
13304;BMP280;6720;51.958;4.540;2023-12-22T10:49:22;100291.09;;;14.66
13304;BMP280;6720;51.958;4.540;2023-12-22T10:51:49;100291.09;;;14.66
13304;BMP280;6720;51.958;4.540;2023-12-22T10:54:14;100288.91;;;14.55
13304;BMP280;6720;51.958;4.540;2023-12-22T10:56:40;100281.41;;;14.66
13304;BMP280;6720;51.958;4.540;2023-12-22T10:59:07;100282.28;;;14.67
13304;BMP280;6720;51.958;4.540;2023-12-22T11:01:33;100280.78;;;14.61
13304;BMP280;6720;51.958;4.540;2023-12-22T11:04:02;100284.03;;;14.46
13304;BMP280;6720;51.958;4.540;2023-12-22T11:06:34;100284.88;;;14.47
13304;BMP280;6720;51.958;4.540;2023-12-22T11:09:00;100282.47;;;14.42
13304;BMP280;6720;51.958;4.540;2023-12-22T11:11:27;100270.88;;;14.66
13304;BMP280;6720;51.958;4.540;2023-12-22T11:14:00;100274.56;;;14.62
13304;BMP280;6720;51.958;4.540;2023-12-22T11:16:30;100271.13;;;14.40
13304;BMP280;6720;51.958;4.540;2023-12-22T11:18:56;100259.28;;;14.91
13304;BMP280;6720;51.958;4.540;2023-12-22T11:21:22;100278.13;;;14.61
13304;BMP280;6720;51.958;4.540;2023-12-22T11:23:49;100274.31;;;14.68
13304;BMP280;6720;51.958;4.540;2023-12-22T11:26:17;100259.34;;;14.69
13304;BMP280;6720;51.958;4.540;2023-12-22T11:28:42;100272.56;;;14.47
13304;BMP280;6720;51.958;4.540;2023-12-22T11:31:10;100258.13;;;14.57
13304;BMP280;6720;51.958;4.540;2023-12-22T11:33:36;100250.47;;;14.92
13304;BMP280;6720;51.958;4.540;2023-12-22T11:36:04;100261.38;;;14.82
13304;BMP280;6720;51.958;4.540;2023-12-22T11:38:30;100259.28;;;14.70
13304;BMP280;6720;51.958;4.540;2023-12-22T11:40:58;100260.94;;;14.73
13304;BMP280;6720;51.958;4.540;2023-12-22T11:43:25;100243.16;;;14.78
13304;BMP280;6720;51.958;4.540;2023-12-22T11:45:50;100250.34;;;14.54
13304;BMP280;6720;51.958;4.540;2023-12-22T11:48:16;100243.22;;;14.77
13304;BMP280;6720;51.958;4.540;2023-12-22T11:50:43;100233.47;;;14.38
13304;BMP280;6720;51.958;4.540;2023-12-22T11:53:20;100246.69;;;14.77
13304;BMP280;6720;51.958;4.540;2023-12-22T11:58:40;100242.91;;;14.44
13304;BMP280;6720;51.958;4.540;2023-12-22T12:01:08;100247.09;;;14.88
13304;BMP280;6720;51.958;4.540;2023-12-22T12:03:41;100245.53;;;14.64
13304;BMP280;6720;51.958;4.540;2023-12-22T12:08:40;100249.28;;;14.78
13304;BMP280;6720;51.958;4.540;2023-12-22T12:11:07;100233.97;;;14.87
13304;BMP280;6720;51.958;4.540;2023-12-22T12:13:33;100231.09;;;14.52
13304;BMP280;6720;51.958;4.540;2023-12-22T12:16:00;100222.22;;;14.75
13304;BMP280;6720;51.958;4.540;2023-12-22T12:18:28;100199.88;;;14.63
13304;BMP280;6720;51.958;4.540;2023-12-22T12:20:54;100206.41;;;14.75
13304;BMP280;6720;51.958;4.540;2023-12-22T12:23:20;100208.56;;;14.86
13304;BMP280;6720;51.958;4.540;2023-12-22T12:25:47;100205.16;;;14.84
13304;BMP280;6720;51.958;4.540;2023-12-22T12:28:12;100198.78;;;14.49
13304;BMP280;6720;51.958;4.540;2023-12-22T12:30:39;100207.50;;;14.49
13304;BMP280;6720;51.958;4.540;2023-12-22T12:33:14;100209.78;;;14.58
13304;BMP280;6720;51.958;4.540;2023-12-22T12:35:40;100195.13;;;14.71
13304;BMP280;6720;51.958;4.540;2023-12-22T12:38:06;100173.22;;;14.71
13304;BMP280;6720;51.958;4.540;2023-12-22T12:40:32;100209.38;;;14.47
13304;BMP280;6720;51.958;4.540;2023-12-22T12:43:01;100209.97;;;14.74
13304;BMP280;6720;51.958;4.540;2023-12-22T12:45:26;100216.09;;;14.54
13304;BMP280;6720;51.958;4.540;2023-12-22T12:47:59;100224.25;;;14.89
13304;BMP280;6720;51.958;4.540;2023-12-22T12:50:28;100240.59;;;14.77
13304;BMP280;6720;51.958;4.540;2023-12-22T12:52:54;100214.75;;;14.64
13304;BMP280;6720;51.958;4.540;2023-12-22T12:55:21;100222.28;;;14.73
13304;BMP280;6720;51.958;4.540;2023-12-22T12:57:54;100237.22;;;14.93
13304;BMP280;6720;51.958;4.540;2023-12-22T13:00:31;100234.13;;;14.63
13304;BMP280;6720;51.958;4.540;2023-12-22T13:03:00;100229.25;;;14.74
13304;BMP280;6720;51.958;4.540;2023-12-22T13:05:28;100234.78;;;14.48
13304;BMP280;6720;51.958;4.540;2023-12-22T13:08:14;100236.75;;;14.63
13304;BMP280;6720;51.958;4.540;2023-12-22T13:10:40;100238.00;;;14.55
13304;BMP280;6720;51.958;4.540;2023-12-22T13:13:06;100227.16;;;14.62
13304;BMP280;6720;51.958;4.540;2023-12-22T13:15:32;100242.09;;;14.62
13304;BMP280;6720;51.958;4.540;2023-12-22T13:17:57;100235.44;;;14.73
13304;BMP280;6720;51.958;4.540;2023-12-22T13:20:23;100240.44;;;14.39
13304;BMP280;6720;51.958;4.540;2023-12-22T13:22:49;100234.59;;;14.73
13304;BMP280;6720;51.958;4.540;2023-12-22T13:25:15;100229.38;;;14.71
13304;BMP280;6720;51.958;4.540;2023-12-22T13:27:47;100239.66;;;14.77
13304;BMP280;6720;51.958;4.540;2023-12-22T13:30:31;100244.66;;;14.63
13304;BMP280;6720;51.958;4.540;2023-12-22T13:32:57;100240.50;;;14.58
13304;BMP280;6720;51.958;4.540;2023-12-22T13:35:25;100240.31;;;14.62
13304;BMP280;6720;51.958;4.540;2023-12-22T13:37:52;100229.91;;;14.59
13304;BMP280;6720;51.958;4.540;2023-12-22T13:40:18;100237.03;;;14.77
13304;BMP280;6720;51.958;4.540;2023-12-22T13:42:43;100274.81;;;14.56
13304;BMP280;6720;51.958;4.540;2023-12-22T13:45:10;100244.66;;;14.63
13304;BMP280;6720;51.958;4.540;2023-12-22T13:47:43;100243.41;;;14.72
13304;BMP280;6720;51.958;4.540;2023-12-22T13:50:18;100254.09;;;14.69
13304;BMP280;6720;51.958;4.540;2023-12-22T13:52:44;100248.34;;;14.59
13304;BMP280;6720;51.958;4.540;2023-12-22T13:55:13;100253.72;;;14.78
13304;BMP280;6720;51.958;4.540;2023-12-22T13:57:40;100273.34;;;14.71
13304;BMP280;6720;51.958;4.540;2023-12-22T14:02:47;100261.91;;;14.70
13304;BMP280;6720;51.958;4.540;2023-12-22T14:05:18;100260.47;;;14.63
13304;BMP280;6720;51.958;4.540;2023-12-22T14:07:44;100242.97;;;14.62
13304;BMP280;6720;51.958;4.540;2023-12-22T14:10:10;100256.72;;;14.49
13304;BMP280;6720;51.958;4.540;2023-12-22T14:12:36;100269.59;;;14.55
13304;BMP280;6720;51.958;4.540;2023-12-22T14:15:14;100276.34;;;14.62
13304;BMP280;6720;51.958;4.540;2023-12-22T14:17:40;100277.50;;;14.55
13304;BMP280;6720;51.958;4.540;2023-12-22T14:20:07;100285.41;;;14.55
13304;BMP280;6720;51.958;4.540;2023-12-22T14:22:38;100282.06;;;14.71